sensor_id;sensor_type;location;lat;lon;timestamp;P1;durP1;ratioP1;P2;durP2;ratioP2
10432;SDS011;5263;48.680;9.004;2023-02-28T00:00:33;1.53;;;1.00;;
10432;SDS011;5263;48.680;9.004;2023-02-28T00:02:59;3.50;;;1.40;;
10432;SDS011;5263;48.680;9.004;2023-02-28T00:05:25;1.40;;;0.87;;
10432;SDS011;5263;48.680;9.004;2023-02-28T00:07:52;1.97;;;1.30;;
10432;SDS011;5263;48.680;9.004;2023-02-28T00:10:18;1.57;;;0.93;;
10432;SDS011;5263;48.680;9.004;2023-02-28T00:12:46;2.93;;;1.00;;
10432;SDS011;5263;48.680;9.004;2023-02-28T00:15:13;2.80;;;1.20;;
10432;SDS011;5263;48.680;9.004;2023-02-28T00:17:38;1.80;;;1.10;;
10432;SDS011;5263;48.680;9.004;2023-02-28T00:20:05;1.97;;;1.00;;
10432;SDS011;5263;48.680;9.004;2023-02-28T00:22:35;1.47;;;1.13;;
10432;SDS011;5263;48.680;9.004;2023-02-28T00:25:01;6.13;;;1.10;;
10432;SDS011;5263;48.680;9.004;2023-02-28T00:27:28;2.90;;;1.20;;
10432;SDS011;5263;48.680;9.004;2023-02-28T00:29:54;4.00;;;1.40;;
10432;SDS011;5263;48.680;9.004;2023-02-28T00:32:20;3.70;;;1.13;;
10432;SDS011;5263;48.680;9.004;2023-02-28T00:34:46;2.50;;;0.90;;
10432;SDS011;5263;48.680;9.004;2023-02-28T00:37:11;1.27;;;1.00;;
10432;SDS011;5263;48.680;9.004;2023-02-28T00:39:38;1.50;;;1.00;;
10432;SDS011;5263;48.680;9.004;2023-02-28T00:42:04;2.03;;;0.90;;
10432;SDS011;5263;48.680;9.004;2023-02-28T00:44:31;2.20;;;0.80;;
10432;SDS011;5263;48.680;9.004;2023-02-28T00:46:57;2.23;;;0.90;;
10432;SDS011;5263;48.680;9.004;2023-02-28T00:49:23;1.53;;;1.00;;
10432;SDS011;5263;48.680;9.004;2023-02-28T00:51:50;2.03;;;1.03;;
10432;SDS011;5263;48.680;9.004;2023-02-28T00:54:16;1.40;;;0.70;;
10432;SDS011;5263;48.680;9.004;2023-02-28T00:56:42;2.60;;;1.20;;
10432;SDS011;5263;48.680;9.004;2023-02-28T00:59:08;5.23;;;1.00;;
10432;SDS011;5263;48.680;9.004;2023-02-28T01:01:34;2.53;;;1.00;;
10432;SDS011;5263;48.680;9.004;2023-02-28T01:03:59;1.27;;;0.80;;
10432;SDS011;5263;48.680;9.004;2023-02-28T01:06:25;2.70;;;0.90;;
10432;SDS011;5263;48.680;9.004;2023-02-28T01:08:51;1.60;;;1.10;;
10432;SDS011;5263;48.680;9.004;2023-02-28T01:11:17;5.00;;;0.80;;
10432;SDS011;5263;48.680;9.004;2023-02-28T01:13:44;1.60;;;0.90;;
10432;SDS011;5263;48.680;9.004;2023-02-28T01:16:10;1.97;;;0.90;;
10432;SDS011;5263;48.680;9.004;2023-02-28T01:18:36;1.10;;;1.00;;
10432;SDS011;5263;48.680;9.004;2023-02-28T01:21:03;1.30;;;1.00;;
10432;SDS011;5263;48.680;9.004;2023-02-28T01:23:33;2.43;;;1.10;;
10432;SDS011;5263;48.680;9.004;2023-02-28T01:26:06;2.00;;;0.80;;
10432;SDS011;5263;48.680;9.004;2023-02-28T01:28:42;1.03;;;0.83;;
10432;SDS011;5263;48.680;9.004;2023-02-28T01:31:08;2.30;;;1.27;;
10432;SDS011;5263;48.680;9.004;2023-02-28T01:33:34;3.87;;;1.17;;
10432;SDS011;5263;48.680;9.004;2023-02-28T01:36:05;1.70;;;1.10;;
10432;SDS011;5263;48.680;9.004;2023-02-28T01:38:36;1.93;;;1.50;;
10432;SDS011;5263;48.680;9.004;2023-02-28T01:41:02;1.33;;;1.03;;
10432;SDS011;5263;48.680;9.004;2023-02-28T01:43:29;3.27;;;1.00;;
10432;SDS011;5263;48.680;9.004;2023-02-28T01:45:57;1.43;;;1.00;;
10432;SDS011;5263;48.680;9.004;2023-02-28T01:48:31;1.73;;;0.90;;
10432;SDS011;5263;48.680;9.004;2023-02-28T01:51:02;1.73;;;1.37;;
10432;SDS011;5263;48.680;9.004;2023-02-28T01:53:33;1.40;;;0.97;;
10432;SDS011;5263;48.680;9.004;2023-02-28T01:56:03;1.60;;;1.30;;
10432;SDS011;5263;48.680;9.004;2023-02-28T01:58:31;4.53;;;1.50;;
10432;SDS011;5263;48.680;9.004;2023-02-28T02:00:57;2.03;;;1.30;;
10432;SDS011;5263;48.680;9.004;2023-02-28T02:03:23;2.93;;;1.30;;
10432;SDS011;5263;48.680;9.004;2023-02-28T02:05:49;2.60;;;1.47;;
10432;SDS011;5263;48.680;9.004;2023-02-28T02:08:21;4.20;;;1.63;;
10432;SDS011;5263;48.680;9.004;2023-02-28T02:10:59;2.53;;;1.50;;
10432;SDS011;5263;48.680;9.004;2023-02-28T02:18:51;2.10;;;1.60;;
10432;SDS011;5263;48.680;9.004;2023-02-28T02:21:38;3.47;;;1.27;;
10432;SDS011;5263;48.680;9.004;2023-02-28T02:29:39;3.90;;;1.30;;
10432;SDS011;5263;48.680;9.004;2023-02-28T02:34:50;2.80;;;1.27;;
10432;SDS011;5263;48.680;9.004;2023-02-28T02:37:57;6.20;;;1.67;;
10432;SDS011;5263;48.680;9.004;2023-02-28T02:40:38;2.73;;;1.43;;
10432;SDS011;5263;48.680;9.004;2023-02-28T02:43:13;2.60;;;1.20;;
10432;SDS011;5263;48.680;9.004;2023-02-28T02:45:49;2.73;;;1.57;;
10432;SDS011;5263;48.680;9.004;2023-02-28T02:48:25;1.67;;;1.27;;
10432;SDS011;5263;48.680;9.004;2023-02-28T02:50:55;1.50;;;1.40;;
10432;SDS011;5263;48.680;9.004;2023-02-28T02:53:29;3.67;;;1.40;;
10432;SDS011;5263;48.680;9.004;2023-02-28T02:55:58;2.13;;;1.50;;
10432;SDS011;5263;48.680;9.004;2023-02-28T02:58:27;3.80;;;1.67;;
10432;SDS011;5263;48.680;9.004;2023-02-28T03:00:59;3.07;;;1.50;;
10432;SDS011;5263;48.680;9.004;2023-02-28T03:03:26;1.70;;;1.60;;
10432;SDS011;5263;48.680;9.004;2023-02-28T03:05:57;2.97;;;1.83;;
10432;SDS011;5263;48.680;9.004;2023-02-28T03:08:25;4.60;;;2.13;;
10432;SDS011;5263;48.680;9.004;2023-02-28T03:10:56;3.37;;;2.00;;
10432;SDS011;5263;48.680;9.004;2023-02-28T03:13:34;1.57;;;1.47;;
10432;SDS011;5263;48.680;9.004;2023-02-28T03:27:09;1.60;;;1.50;;
10432;SDS011;5263;48.680;9.004;2023-02-28T03:29:43;2.40;;;1.50;;
10432;SDS011;5263;48.680;9.004;2023-02-28T03:37:47;2.93;;;2.10;;
10432;SDS011;5263;48.680;9.004;2023-02-28T03:42:55;2.13;;;1.63;;
10432;SDS011;5263;48.680;9.004;2023-02-28T03:45:25;3.70;;;2.40;;
10432;SDS011;5263;48.680;9.004;2023-02-28T03:48:02;2.50;;;2.07;;
10432;SDS011;5263;48.680;9.004;2023-02-28T03:53:25;4.00;;;2.30;;
10432;SDS011;5263;48.680;9.004;2023-02-28T03:58:49;3.57;;;2.57;;
10432;SDS011;5263;48.680;9.004;2023-02-28T04:01:36;4.67;;;2.00;;
10432;SDS011;5263;48.680;9.004;2023-02-28T04:04:06;2.77;;;2.30;;
10432;SDS011;5263;48.680;9.004;2023-02-28T04:06:33;3.87;;;3.07;;
10432;SDS011;5263;48.680;9.004;2023-02-28T04:09:00;4.27;;;2.67;;
10432;SDS011;5263;48.680;9.004;2023-02-28T04:11:33;3.70;;;3.10;;
10432;SDS011;5263;48.680;9.004;2023-02-28T04:14:01;3.83;;;2.63;;
10432;SDS011;5263;48.680;9.004;2023-02-28T04:16:28;2.67;;;2.27;;
10432;SDS011;5263;48.680;9.004;2023-02-28T04:18:54;2.90;;;2.67;;
10432;SDS011;5263;48.680;9.004;2023-02-28T04:21:28;2.90;;;2.70;;
10432;SDS011;5263;48.680;9.004;2023-02-28T04:23:55;4.50;;;2.70;;
10432;SDS011;5263;48.680;9.004;2023-02-28T04:26:27;3.53;;;2.90;;
10432;SDS011;5263;48.680;9.004;2023-02-28T04:28:57;5.40;;;4.00;;
10432;SDS011;5263;48.680;9.004;2023-02-28T04:31:23;4.53;;;2.93;;
10432;SDS011;5263;48.680;9.004;2023-02-28T04:33:48;5.93;;;2.60;;
10432;SDS011;5263;48.680;9.004;2023-02-28T04:36:14;3.27;;;2.50;;
10432;SDS011;5263;48.680;9.004;2023-02-28T04:38:42;5.23;;;2.77;;
10432;SDS011;5263;48.680;9.004;2023-02-28T04:41:08;6.73;;;2.60;;
10432;SDS011;5263;48.680;9.004;2023-02-28T04:43:34;3.17;;;2.87;;
10432;SDS011;5263;48.680;9.004;2023-02-28T04:46:01;3.70;;;2.73;;
10432;SDS011;5263;48.680;9.004;2023-02-28T04:48:29;6.50;;;3.00;;
10432;SDS011;5263;48.680;9.004;2023-02-28T04:51:00;4.37;;;3.13;;
10432;SDS011;5263;48.680;9.004;2023-02-28T04:53:28;5.70;;;3.73;;
10432;SDS011;5263;48.680;9.004;2023-02-28T04:55:54;3.40;;;2.87;;
10432;SDS011;5263;48.680;9.004;2023-02-28T04:58:20;4.07;;;3.23;;
10432;SDS011;5263;48.680;9.004;2023-02-28T05:00:48;4.27;;;3.10;;
10432;SDS011;5263;48.680;9.004;2023-02-28T05:03:17;4.30;;;3.33;;
10432;SDS011;5263;48.680;9.004;2023-02-28T05:05:43;8.63;;;3.77;;
10432;SDS011;5263;48.680;9.004;2023-02-28T05:08:09;3.80;;;3.27;;
10432;SDS011;5263;48.680;9.004;2023-02-28T05:10:35;4.43;;;3.03;;
10432;SDS011;5263;48.680;9.004;2023-02-28T05:13:01;6.97;;;2.83;;
10432;SDS011;5263;48.680;9.004;2023-02-28T05:15:27;5.30;;;3.27;;
10432;SDS011;5263;48.680;9.004;2023-02-28T05:17:52;9.03;;;3.10;;
10432;SDS011;5263;48.680;9.004;2023-02-28T05:20:18;2.80;;;2.57;;
10432;SDS011;5263;48.680;9.004;2023-02-28T05:22:44;3.20;;;2.73;;
10432;SDS011;5263;48.680;9.004;2023-02-28T05:25:19;5.20;;;3.20;;
10432;SDS011;5263;48.680;9.004;2023-02-28T05:27:47;3.67;;;2.93;;
10432;SDS011;5263;48.680;9.004;2023-02-28T05:30:13;2.90;;;2.70;;
10432;SDS011;5263;48.680;9.004;2023-02-28T05:32:40;5.40;;;3.10;;
10432;SDS011;5263;48.680;9.004;2023-02-28T05:35:11;5.77;;;3.83;;
10432;SDS011;5263;48.680;9.004;2023-02-28T05:37:37;7.23;;;3.33;;
10432;SDS011;5263;48.680;9.004;2023-02-28T05:40:04;6.03;;;3.57;;
10432;SDS011;5263;48.680;9.004;2023-02-28T05:42:32;5.67;;;3.70;;
10432;SDS011;5263;48.680;9.004;2023-02-28T05:44:58;5.73;;;2.67;;
10432;SDS011;5263;48.680;9.004;2023-02-28T05:47:24;5.63;;;3.63;;
10432;SDS011;5263;48.680;9.004;2023-02-28T05:49:49;3.63;;;3.33;;
10432;SDS011;5263;48.680;9.004;2023-02-28T05:52:15;3.83;;;3.53;;
10432;SDS011;5263;48.680;9.004;2023-02-28T05:54:41;4.83;;;3.77;;
10432;SDS011;5263;48.680;9.004;2023-02-28T05:57:06;4.97;;;3.43;;
10432;SDS011;5263;48.680;9.004;2023-02-28T05:59:32;5.40;;;4.80;;
10432;SDS011;5263;48.680;9.004;2023-02-28T06:01:58;7.07;;;4.20;;
10432;SDS011;5263;48.680;9.004;2023-02-28T06:04:23;4.43;;;4.03;;
10432;SDS011;5263;48.680;9.004;2023-02-28T06:06:49;4.67;;;4.13;;
10432;SDS011;5263;48.680;9.004;2023-02-28T06:09:16;5.03;;;3.40;;
10432;SDS011;5263;48.680;9.004;2023-02-28T06:11:42;5.87;;;4.30;;
10432;SDS011;5263;48.680;9.004;2023-02-28T06:14:12;11.83;;;5.57;;
10432;SDS011;5263;48.680;9.004;2023-02-28T06:16:41;5.83;;;4.03;;
10432;SDS011;5263;48.680;9.004;2023-02-28T06:19:06;5.70;;;4.50;;
10432;SDS011;5263;48.680;9.004;2023-02-28T06:21:33;4.30;;;3.90;;
10432;SDS011;5263;48.680;9.004;2023-02-28T06:23:59;9.43;;;4.30;;
10432;SDS011;5263;48.680;9.004;2023-02-28T06:26:25;7.03;;;4.93;;
10432;SDS011;5263;48.680;9.004;2023-02-28T06:28:50;8.93;;;5.33;;
10432;SDS011;5263;48.680;9.004;2023-02-28T06:31:16;5.30;;;4.53;;
10432;SDS011;5263;48.680;9.004;2023-02-28T06:33:43;5.67;;;5.17;;
10432;SDS011;5263;48.680;9.004;2023-02-28T06:36:11;5.03;;;4.53;;
10432;SDS011;5263;48.680;9.004;2023-02-28T06:38:38;7.67;;;4.43;;
10432;SDS011;5263;48.680;9.004;2023-02-28T06:41:04;6.83;;;4.80;;
10432;SDS011;5263;48.680;9.004;2023-02-28T06:43:33;5.80;;;4.10;;
10432;SDS011;5263;48.680;9.004;2023-02-28T06:46:01;6.80;;;5.63;;
10432;SDS011;5263;48.680;9.004;2023-02-28T06:48:28;5.37;;;4.67;;
10432;SDS011;5263;48.680;9.004;2023-02-28T06:53:36;8.77;;;5.73;;
10432;SDS011;5263;48.680;9.004;2023-02-28T06:56:04;8.23;;;6.33;;
10432;SDS011;5263;48.680;9.004;2023-02-28T06:58:31;7.67;;;5.23;;
10432;SDS011;5263;48.680;9.004;2023-02-28T07:00:57;7.70;;;5.83;;
10432;SDS011;5263;48.680;9.004;2023-02-28T07:03:22;6.47;;;4.90;;
10432;SDS011;5263;48.680;9.004;2023-02-28T07:05:48;8.30;;;5.43;;
10432;SDS011;5263;48.680;9.004;2023-02-28T07:08:14;7.07;;;4.60;;
10432;SDS011;5263;48.680;9.004;2023-02-28T07:10:40;9.57;;;6.93;;
10432;SDS011;5263;48.680;9.004;2023-02-28T07:13:06;6.47;;;5.77;;
10432;SDS011;5263;48.680;9.004;2023-02-28T07:15:33;9.47;;;5.33;;
10432;SDS011;5263;48.680;9.004;2023-02-28T07:17:59;9.73;;;6.63;;
10432;SDS011;5263;48.680;9.004;2023-02-28T07:20:25;15.33;;;8.73;;
10432;SDS011;5263;48.680;9.004;2023-02-28T07:22:50;23.57;;;14.07;;
10432;SDS011;5263;48.680;9.004;2023-02-28T07:25:27;8.37;;;6.47;;
10432;SDS011;5263;48.680;9.004;2023-02-28T07:27:54;30.47;;;17.03;;
10432;SDS011;5263;48.680;9.004;2023-02-28T07:30:20;14.87;;;8.43;;
10432;SDS011;5263;48.680;9.004;2023-02-28T07:32:46;58.87;;;34.77;;
10432;SDS011;5263;48.680;9.004;2023-02-28T07:35:13;18.77;;;10.20;;
10432;SDS011;5263;48.680;9.004;2023-02-28T07:37:40;15.57;;;9.23;;
10432;SDS011;5263;48.680;9.004;2023-02-28T07:40:07;11.70;;;7.27;;
10432;SDS011;5263;48.680;9.004;2023-02-28T07:42:35;10.33;;;6.63;;
10432;SDS011;5263;48.680;9.004;2023-02-28T07:45:01;6.03;;;5.33;;
10432;SDS011;5263;48.680;9.004;2023-02-28T07:47:28;11.27;;;7.37;;
10432;SDS011;5263;48.680;9.004;2023-02-28T07:49:55;9.93;;;6.70;;
10432;SDS011;5263;48.680;9.004;2023-02-28T07:52:20;8.60;;;5.87;;
10432;SDS011;5263;48.680;9.004;2023-02-28T07:54:48;9.30;;;5.77;;
10432;SDS011;5263;48.680;9.004;2023-02-28T07:57:13;6.83;;;6.07;;
10432;SDS011;5263;48.680;9.004;2023-02-28T07:59:39;9.57;;;7.13;;
10432;SDS011;5263;48.680;9.004;2023-02-28T08:02:05;7.00;;;5.50;;
10432;SDS011;5263;48.680;9.004;2023-02-28T08:04:33;8.00;;;6.33;;
10432;SDS011;5263;48.680;9.004;2023-02-28T08:07:00;8.90;;;6.47;;
10432;SDS011;5263;48.680;9.004;2023-02-28T08:09:25;8.90;;;5.17;;
10432;SDS011;5263;48.680;9.004;2023-02-28T08:11:51;9.30;;;6.27;;
10432;SDS011;5263;48.680;9.004;2023-02-28T08:14:16;7.70;;;5.90;;
10432;SDS011;5263;48.680;9.004;2023-02-28T08:16:42;7.90;;;5.23;;
10432;SDS011;5263;48.680;9.004;2023-02-28T08:19:08;6.23;;;5.07;;
10432;SDS011;5263;48.680;9.004;2023-02-28T08:21:34;7.93;;;5.37;;
10432;SDS011;5263;48.680;9.004;2023-02-28T08:24:00;18.77;;;10.27;;
10432;SDS011;5263;48.680;9.004;2023-02-28T08:26:25;8.37;;;6.23;;
10432;SDS011;5263;48.680;9.004;2023-02-28T08:28:51;7.97;;;6.93;;
10432;SDS011;5263;48.680;9.004;2023-02-28T08:31:17;6.90;;;6.20;;
10432;SDS011;5263;48.680;9.004;2023-02-28T08:33:43;5.63;;;5.13;;
10432;SDS011;5263;48.680;9.004;2023-02-28T08:36:14;7.70;;;6.07;;
10432;SDS011;5263;48.680;9.004;2023-02-28T08:38:40;7.27;;;5.73;;
10432;SDS011;5263;48.680;9.004;2023-02-28T08:41:07;8.27;;;5.37;;
10432;SDS011;5263;48.680;9.004;2023-02-28T08:43:34;10.37;;;6.33;;
10432;SDS011;5263;48.680;9.004;2023-02-28T08:46:00;8.93;;;7.40;;
10432;SDS011;5263;48.680;9.004;2023-02-28T08:48:27;9.13;;;5.90;;
10432;SDS011;5263;48.680;9.004;2023-02-28T08:53:29;8.97;;;6.20;;
10432;SDS011;5263;48.680;9.004;2023-02-28T08:56:01;9.27;;;6.50;;
10432;SDS011;5263;48.680;9.004;2023-02-28T08:58:29;7.20;;;6.30;;
10432;SDS011;5263;48.680;9.004;2023-02-28T09:00:55;10.17;;;6.73;;
10432;SDS011;5263;48.680;9.004;2023-02-28T09:03:21;7.50;;;6.20;;
10432;SDS011;5263;48.680;9.004;2023-02-28T09:05:57;8.33;;;5.97;;
10432;SDS011;5263;48.680;9.004;2023-02-28T09:08:25;13.77;;;9.33;;
10432;SDS011;5263;48.680;9.004;2023-02-28T09:10:52;5.60;;;5.03;;
10432;SDS011;5263;48.680;9.004;2023-02-28T09:13:19;8.30;;;6.53;;
10432;SDS011;5263;48.680;9.004;2023-02-28T09:15:45;7.20;;;5.77;;
10432;SDS011;5263;48.680;9.004;2023-02-28T09:18:11;11.03;;;6.97;;
10432;SDS011;5263;48.680;9.004;2023-02-28T09:20:38;7.33;;;6.60;;
10432;SDS011;5263;48.680;9.004;2023-02-28T09:23:05;6.60;;;5.87;;
10432;SDS011;5263;48.680;9.004;2023-02-28T09:25:31;6.03;;;5.43;;
10432;SDS011;5263;48.680;9.004;2023-02-28T09:27:57;8.67;;;6.43;;
10432;SDS011;5263;48.680;9.004;2023-02-28T09:30:23;6.73;;;5.77;;
10432;SDS011;5263;48.680;9.004;2023-02-28T09:32:48;9.43;;;5.77;;
10432;SDS011;5263;48.680;9.004;2023-02-28T09:35:20;8.77;;;6.40;;
10432;SDS011;5263;48.680;9.004;2023-02-28T09:37:50;8.83;;;5.90;;
10432;SDS011;5263;48.680;9.004;2023-02-28T09:40:16;7.53;;;6.13;;
10432;SDS011;5263;48.680;9.004;2023-02-28T09:42:45;8.30;;;6.30;;
10432;SDS011;5263;48.680;9.004;2023-02-28T09:45:26;8.67;;;7.23;;
10432;SDS011;5263;48.680;9.004;2023-02-28T09:47:54;11.90;;;6.50;;
10432;SDS011;5263;48.680;9.004;2023-02-28T09:50:40;7.67;;;6.47;;
10432;SDS011;5263;48.680;9.004;2023-02-28T09:53:30;8.60;;;7.00;;
10432;SDS011;5263;48.680;9.004;2023-02-28T09:56:10;8.87;;;6.93;;
10432;SDS011;5263;48.680;9.004;2023-02-28T09:58:58;13.13;;;6.63;;
10432;SDS011;5263;48.680;9.004;2023-02-28T10:01:52;9.17;;;7.10;;
10432;SDS011;5263;48.680;9.004;2023-02-28T10:04:49;11.77;;;7.07;;
10432;SDS011;5263;48.680;9.004;2023-02-28T10:09:53;7.63;;;5.97;;
10432;SDS011;5263;48.680;9.004;2023-02-28T10:12:22;6.60;;;5.80;;
10432;SDS011;5263;48.680;9.004;2023-02-28T10:14:49;14.47;;;7.03;;
10432;SDS011;5263;48.680;9.004;2023-02-28T10:17:19;11.30;;;7.03;;
10432;SDS011;5263;48.680;9.004;2023-02-28T10:22:19;8.77;;;6.53;;
10432;SDS011;5263;48.680;9.004;2023-02-28T10:24:50;7.67;;;6.10;;
10432;SDS011;5263;48.680;9.004;2023-02-28T10:27:21;9.23;;;6.73;;
10432;SDS011;5263;48.680;9.004;2023-02-28T10:29:54;11.13;;;7.47;;
10432;SDS011;5263;48.680;9.004;2023-02-28T10:32:29;9.10;;;7.23;;
10432;SDS011;5263;48.680;9.004;2023-02-28T10:35:32;9.97;;;7.67;;
10432;SDS011;5263;48.680;9.004;2023-02-28T10:37:56;10.77;;;6.63;;
10432;SDS011;5263;48.680;9.004;2023-02-28T10:45:39;8.67;;;6.60;;
10432;SDS011;5263;48.680;9.004;2023-02-28T10:50:43;8.27;;;6.40;;
10432;SDS011;5263;48.680;9.004;2023-02-28T10:53:30;7.63;;;6.57;;
10432;SDS011;5263;48.680;9.004;2023-02-28T10:58:30;8.30;;;6.27;;
10432;SDS011;5263;48.680;9.004;2023-02-28T11:01:08;8.97;;;7.07;;
10432;SDS011;5263;48.680;9.004;2023-02-28T11:03:39;6.67;;;5.97;;
10432;SDS011;5263;48.680;9.004;2023-02-28T11:06:11;8.77;;;6.73;;
10432;SDS011;5263;48.680;9.004;2023-02-28T11:09:00;8.57;;;6.30;;
10432;SDS011;5263;48.680;9.004;2023-02-28T11:11:29;9.90;;;6.07;;
10432;SDS011;5263;48.680;9.004;2023-02-28T11:14:07;8.73;;;6.60;;
10432;SDS011;5263;48.680;9.004;2023-02-28T11:16:51;7.20;;;6.50;;
10432;SDS011;5263;48.680;9.004;2023-02-28T11:19:22;8.60;;;6.00;;
10432;SDS011;5263;48.680;9.004;2023-02-28T11:21:55;8.23;;;6.87;;
10432;SDS011;5263;48.680;9.004;2023-02-28T11:24:37;7.67;;;6.30;;
10432;SDS011;5263;48.680;9.004;2023-02-28T11:27:54;9.27;;;6.30;;
10432;SDS011;5263;48.680;9.004;2023-02-28T11:29:54;8.53;;;5.97;;
10432;SDS011;5263;48.680;9.004;2023-02-28T11:32:23;6.53;;;5.87;;
10432;SDS011;5263;48.680;9.004;2023-02-28T11:37:51;8.50;;;6.43;;
10432;SDS011;5263;48.680;9.004;2023-02-28T11:40:18;7.70;;;5.93;;
10432;SDS011;5263;48.680;9.004;2023-02-28T11:42:53;9.93;;;6.00;;
10432;SDS011;5263;48.680;9.004;2023-02-28T11:48:14;9.10;;;6.10;;
10432;SDS011;5263;48.680;9.004;2023-02-28T11:50:54;6.20;;;5.60;;
10432;SDS011;5263;48.680;9.004;2023-02-28T11:56:43;10.07;;;6.20;;
10432;SDS011;5263;48.680;9.004;2023-02-28T11:59:23;6.07;;;5.57;;
10432;SDS011;5263;48.680;9.004;2023-02-28T12:02:05;7.33;;;5.17;;
10432;SDS011;5263;48.680;9.004;2023-02-28T12:13:41;7.67;;;6.03;;
10432;SDS011;5263;48.680;9.004;2023-02-28T12:19:31;7.33;;;6.13;;
10432;SDS011;5263;48.680;9.004;2023-02-28T12:28:06;12.63;;;8.20;;
10432;SDS011;5263;48.680;9.004;2023-02-28T12:30:36;7.57;;;6.77;;
10432;SDS011;5263;48.680;9.004;2023-02-28T12:33:12;7.47;;;6.77;;
10432;SDS011;5263;48.680;9.004;2023-02-28T12:35:47;9.60;;;7.37;;
10432;SDS011;5263;48.680;9.004;2023-02-28T12:38:27;7.07;;;6.30;;
10432;SDS011;5263;48.680;9.004;2023-02-28T12:41:05;6.00;;;5.47;;
10432;SDS011;5263;48.680;9.004;2023-02-28T12:43:42;6.97;;;6.27;;
10432;SDS011;5263;48.680;9.004;2023-02-28T12:48:47;6.90;;;6.30;;
10432;SDS011;5263;48.680;9.004;2023-02-28T12:51:18;7.13;;;6.20;;
10432;SDS011;5263;48.680;9.004;2023-02-28T12:59:25;7.30;;;6.60;;
10432;SDS011;5263;48.680;9.004;2023-02-28T13:07:54;6.27;;;5.67;;
10432;SDS011;5263;48.680;9.004;2023-02-28T13:13:11;7.17;;;6.07;;
10432;SDS011;5263;48.680;9.004;2023-02-28T13:15:57;8.43;;;6.47;;
10432;SDS011;5263;48.680;9.004;2023-02-28T13:18:28;6.20;;;5.70;;
10432;SDS011;5263;48.680;9.004;2023-02-28T13:21:30;6.13;;;5.53;;
10432;SDS011;5263;48.680;9.004;2023-02-28T13:24:08;7.00;;;5.70;;
10432;SDS011;5263;48.680;9.004;2023-02-28T13:34:30;6.30;;;5.70;;
10432;SDS011;5263;48.680;9.004;2023-02-28T13:37:32;5.93;;;5.37;;
10432;SDS011;5263;48.680;9.004;2023-02-28T13:39:50;8.37;;;6.47;;
10432;SDS011;5263;48.680;9.004;2023-02-28T13:47:48;8.77;;;6.77;;
10432;SDS011;5263;48.680;9.004;2023-02-28T13:50:24;6.87;;;6.13;;
10432;SDS011;5263;48.680;9.004;2023-02-28T13:53:13;9.57;;;8.33;;
10432;SDS011;5263;48.680;9.004;2023-02-28T13:58:32;11.23;;;6.33;;
10432;SDS011;5263;48.680;9.004;2023-02-28T14:04:12;6.20;;;5.60;;
10432;SDS011;5263;48.680;9.004;2023-02-28T14:07:06;9.23;;;6.57;;
10432;SDS011;5263;48.680;9.004;2023-02-28T14:09:45;6.90;;;6.20;;
10432;SDS011;5263;48.680;9.004;2023-02-28T14:18:04;6.30;;;5.70;;
10432;SDS011;5263;48.680;9.004;2023-02-28T14:20:55;7.50;;;6.43;;
10432;SDS011;5263;48.680;9.004;2023-02-28T14:28:56;8.17;;;6.70;;
10432;SDS011;5263;48.680;9.004;2023-02-28T14:34:30;12.27;;;8.20;;
10432;SDS011;5263;48.680;9.004;2023-02-28T14:37:20;6.87;;;6.27;;
10432;SDS011;5263;48.680;9.004;2023-02-28T14:39:54;7.30;;;6.60;;
10432;SDS011;5263;48.680;9.004;2023-02-28T14:45:00;7.90;;;5.63;;
10432;SDS011;5263;48.680;9.004;2023-02-28T14:47:33;9.93;;;6.43;;
10432;SDS011;5263;48.680;9.004;2023-02-28T14:50:01;7.20;;;5.93;;
10432;SDS011;5263;48.680;9.004;2023-02-28T14:52:29;11.07;;;6.93;;
10432;SDS011;5263;48.680;9.004;2023-02-28T14:54:58;6.67;;;6.00;;
10432;SDS011;5263;48.680;9.004;2023-02-28T15:02:36;11.17;;;6.80;;
10432;SDS011;5263;48.680;9.004;2023-02-28T15:07:35;7.33;;;6.63;;
10432;SDS011;5263;48.680;9.004;2023-02-28T15:10:17;7.03;;;6.23;;
10432;SDS011;5263;48.680;9.004;2023-02-28T15:13:11;7.03;;;6.30;;
10432;SDS011;5263;48.680;9.004;2023-02-28T15:15:54;8.93;;;7.40;;
10432;SDS011;5263;48.680;9.004;2023-02-28T15:18:23;8.73;;;6.23;;
10432;SDS011;5263;48.680;9.004;2023-02-28T15:21:03;9.47;;;6.33;;
10432;SDS011;5263;48.680;9.004;2023-02-28T15:23:32;8.93;;;6.83;;
10432;SDS011;5263;48.680;9.004;2023-02-28T15:26:03;7.03;;;6.33;;
10432;SDS011;5263;48.680;9.004;2023-02-28T15:28:29;7.50;;;6.80;;
10432;SDS011;5263;48.680;9.004;2023-02-28T15:31:00;8.93;;;6.23;;
10432;SDS011;5263;48.680;9.004;2023-02-28T15:33:32;6.03;;;5.43;;
10432;SDS011;5263;48.680;9.004;2023-02-28T15:36:05;7.23;;;5.80;;
10432;SDS011;5263;48.680;9.004;2023-02-28T15:38:36;6.50;;;5.90;;
10432;SDS011;5263;48.680;9.004;2023-02-28T15:41:02;6.70;;;6.10;;
10432;SDS011;5263;48.680;9.004;2023-02-28T15:43:34;6.90;;;6.20;;
10432;SDS011;5263;48.680;9.004;2023-02-28T15:48:33;8.50;;;6.37;;
10432;SDS011;5263;48.680;9.004;2023-02-28T15:53:32;8.73;;;6.93;;
10432;SDS011;5263;48.680;9.004;2023-02-28T15:56:02;7.90;;;6.00;;
10432;SDS011;5263;48.680;9.004;2023-02-28T15:58:37;8.13;;;5.83;;
10432;SDS011;5263;48.680;9.004;2023-02-28T16:01:05;5.97;;;5.47;;
10432;SDS011;5263;48.680;9.004;2023-02-28T16:03:39;6.10;;;5.50;;
10432;SDS011;5263;48.680;9.004;2023-02-28T16:06:32;30.17;;;17.83;;
10432;SDS011;5263;48.680;9.004;2023-02-28T16:09:00;8.07;;;7.23;;
10432;SDS011;5263;48.680;9.004;2023-02-28T16:11:26;7.90;;;6.00;;
10432;SDS011;5263;48.680;9.004;2023-02-28T16:13:52;7.13;;;6.40;;
10432;SDS011;5263;48.680;9.004;2023-02-28T16:16:20;7.80;;;5.87;;
10432;SDS011;5263;48.680;9.004;2023-02-28T16:18:48;6.60;;;5.67;;
10432;SDS011;5263;48.680;9.004;2023-02-28T16:21:14;11.47;;;6.60;;
10432;SDS011;5263;48.680;9.004;2023-02-28T16:23:39;10.60;;;9.03;;
10432;SDS011;5263;48.680;9.004;2023-02-28T16:26:05;7.33;;;6.33;;
10432;SDS011;5263;48.680;9.004;2023-02-28T16:28:33;8.67;;;6.50;;
10432;SDS011;5263;48.680;9.004;2023-02-28T16:31:02;9.80;;;6.87;;
10432;SDS011;5263;48.680;9.004;2023-02-28T16:33:30;6.33;;;5.57;;
10432;SDS011;5263;48.680;9.004;2023-02-28T16:35:56;10.70;;;6.33;;
10432;SDS011;5263;48.680;9.004;2023-02-28T16:38:22;8.93;;;7.03;;
10432;SDS011;5263;48.680;9.004;2023-02-28T16:40:50;8.07;;;6.37;;
10432;SDS011;5263;48.680;9.004;2023-02-28T16:43:17;6.67;;;5.60;;
10432;SDS011;5263;48.680;9.004;2023-02-28T16:45:46;8.10;;;7.33;;
10432;SDS011;5263;48.680;9.004;2023-02-28T16:48:13;11.43;;;9.40;;
10432;SDS011;5263;48.680;9.004;2023-02-28T16:50:40;7.80;;;6.77;;
10432;SDS011;5263;48.680;9.004;2023-02-28T16:53:07;7.63;;;6.57;;
10432;SDS011;5263;48.680;9.004;2023-02-28T16:55:33;12.83;;;7.23;;
10432;SDS011;5263;48.680;9.004;2023-02-28T16:58:00;7.30;;;6.57;;
10432;SDS011;5263;48.680;9.004;2023-02-28T17:00:28;8.33;;;6.83;;
10432;SDS011;5263;48.680;9.004;2023-02-28T17:02:56;10.60;;;8.70;;
10432;SDS011;5263;48.680;9.004;2023-02-28T17:05:22;8.77;;;7.87;;
10432;SDS011;5263;48.680;9.004;2023-02-28T17:07:48;10.87;;;7.87;;
10432;SDS011;5263;48.680;9.004;2023-02-28T17:10:16;11.47;;;8.03;;
10432;SDS011;5263;48.680;9.004;2023-02-28T17:12:51;8.03;;;7.20;;
10432;SDS011;5263;48.680;9.004;2023-02-28T17:15:17;11.03;;;7.47;;
10432;SDS011;5263;48.680;9.004;2023-02-28T17:17:45;8.70;;;7.80;;
10432;SDS011;5263;48.680;9.004;2023-02-28T17:20:13;17.93;;;9.20;;
10432;SDS011;5263;48.680;9.004;2023-02-28T17:22:43;10.50;;;7.73;;
10432;SDS011;5263;48.680;9.004;2023-02-28T17:25:09;9.20;;;7.50;;
10432;SDS011;5263;48.680;9.004;2023-02-28T17:27:36;8.70;;;7.43;;
10432;SDS011;5263;48.680;9.004;2023-02-28T17:30:04;8.73;;;7.77;;
10432;SDS011;5263;48.680;9.004;2023-02-28T17:32:38;8.37;;;7.37;;
10432;SDS011;5263;48.680;9.004;2023-02-28T17:35:04;12.20;;;8.73;;
10432;SDS011;5263;48.680;9.004;2023-02-28T17:37:30;13.17;;;8.67;;
10432;SDS011;5263;48.680;9.004;2023-02-28T17:39:55;16.83;;;11.40;;
10432;SDS011;5263;48.680;9.004;2023-02-28T17:42:21;17.47;;;11.60;;
10432;SDS011;5263;48.680;9.004;2023-02-28T17:44:46;8.90;;;7.53;;
10432;SDS011;5263;48.680;9.004;2023-02-28T17:47:12;9.37;;;7.53;;
10432;SDS011;5263;48.680;9.004;2023-02-28T17:49:38;9.77;;;7.80;;